Terminal Aerodrome Forecast
Issued by NWS Duluth, MN

Home | Current Version | Previous Version | Text Only | Print | Product List | Glossary On
Versions: 1 2 3 4 5 6 7 8 9 10 11 12 13 14 15 16 17 18 19 20 21 22 23
000
FTUS43 KDLH 182300
TAFINL
TAF
KINL 182335Z 1900/1924 15009KT P6SM SCT250
     FM190400 16010KT P6SM VCSH BKN150 WS020/20040KT
     FM190800 18012KT P6SM VCSH BKN060 WS020/22045KT
     FM191200 20012G20KT P6SM VCSH SCT015 BKN040
     FM191500 20014G24KT P6SM -SHRA OVC025
     FM192000 21010G20KT P6SM VCSH BKN030=

USA.gov is the U.S. government's official web portal to all federal, state and local government web resources and services.